Time;durP1;ratioP1;P1;durP2;ratioP2;P2;SDS_P1;SDS_P2;PMS_P1;PMS_P2;Temp;Humidity;BMP_temperature;BMP_pressure;BME280_temperature;BME280_humidity;BME280_pressure;Samples;Min_cycle;Max_cycle;Signal;HPM_P1;HPM_P2
2023/10/24 00:00:53;;;;;;;2.67;2.30;;;;;;;;;;5050930;28;20284;-82
2023/10/24 00:03:20;;;;;;;2.70;2.50;;;;;;;;;;5051043;28;20198;-81
2023/10/24 00:05:48;;;;;;;2.47;2.23;;;;;;;;;;5049973;28;20234;-82
2023/10/24 00:08:16;;;;;;;3.43;2.80;;;;;;;;;;5051369;28;20237;-82
2023/10/24 00:10:43;;;;;;;2.93;2.60;;;;;;;;;;5050786;28;20241;-82
2023/10/24 00:13:10;;;;;;;4.57;2.30;;;;;;;;;;5050905;28;20218;-82
2023/10/24 00:15:37;;;;;;;2.80;2.60;;;;;;;;;;5050927;28;20229;-82
2023/10/24 00:18:04;;;;;;;3.37;2.77;;;;;;;;;;5051132;28;20201;-82
2023/10/24 00:20:31;;;;;;;3.10;2.73;;;;;;;;;;5050803;28;20241;-82
2023/10/24 00:22:58;;;;;;;3.97;3.20;;;;;;;;;;5050947;28;20217;-82
2023/10/24 00:25:27;;;;;;;3.40;2.97;;;;;;;;;;5050890;28;20594;-83
2023/10/24 00:27:54;;;;;;;3.00;2.80;;;;;;;;;;5046515;28;20241;-81
2023/10/24 00:30:21;;;;;;;3.23;2.93;;;;;;;;;;5050546;28;20224;-82
2023/10/24 00:32:49;;;;;;;3.10;2.80;;;;;;;;;;5050523;28;20225;-82
2023/10/24 00:35:16;;;;;;;7.47;3.30;;;;;;;;;;5050404;28;20210;-82
2023/10/24 00:37:43;;;;;;;3.50;3.20;;;;;;;;;;5050715;28;20256;-82
2023/10/24 00:40:11;;;;;;;5.27;3.70;;;;;;;;;;5050253;28;20229;-82
2023/10/24 00:42:39;;;;;;;5.37;3.87;;;;;;;;;;5050587;28;20198;-82
2023/10/24 00:45:07;;;;;;;5.07;3.33;;;;;;;;;;5050398;28;20205;-83
2023/10/24 00:47:34;;;;;;;4.27;3.70;;;;;;;;;;5051083;28;20587;-82
2023/10/24 00:50:02;;;;;;;5.00;3.57;;;;;;;;;;5050328;28;20226;-82
2023/10/24 00:52:29;;;;;;;4.60;3.10;;;;;;;;;;5050504;28;20561;-82
2023/10/24 00:54:56;;;;;;;4.10;3.30;;;;;;;;;;5050619;28;20202;-82
2023/10/24 00:57:24;;;;;;;4.33;3.40;;;;;;;;;;5050219;28;20756;-82
2023/10/24 00:59:52;;;;;;;4.10;3.20;;;;;;;;;;5047687;28;20232;-82
2023/10/24 01:02:20;;;;;;;5.50;3.40;;;;;;;;;;5035508;28;20222;-82
2023/10/24 01:04:47;;;;;;;4.40;3.20;;;;;;;;;;5040799;28;20210;-82
2023/10/24 01:07:14;;;;;;;3.53;3.13;;;;;;;;;;5042875;28;20240;-82
2023/10/24 01:09:41;;;;;;;5.20;3.50;;;;;;;;;;5042506;28;20230;-81
2023/10/24 01:12:08;;;;;;;4.43;3.70;;;;;;;;;;5049857;28;20238;-82
2023/10/24 01:14:35;;;;;;;4.83;3.50;;;;;;;;;;5050505;28;20884;-82
2023/10/24 01:17:11;;;;;;;3.30;3.00;;;;;;;;;;5052207;28;20226;-82
2023/10/24 01:19:38;;;;;;;3.27;2.97;;;;;;;;;;5054410;28;20221;-81
2023/10/24 01:22:06;;;;;;;3.97;3.50;;;;;;;;;;5054117;28;20383;-82
2023/10/24 01:24:34;;;;;;;6.67;3.30;;;;;;;;;;5054647;28;20205;-82
2023/10/24 01:27:01;;;;;;;3.60;3.30;;;;;;;;;;5054262;28;20237;-82
2023/10/24 01:29:28;;;;;;;3.90;3.27;;;;;;;;;;5054234;28;20230;-82
2023/10/24 01:31:55;;;;;;;4.50;3.90;;;;;;;;;;5049617;28;20241;-82
2023/10/24 01:34:22;;;;;;;3.53;3.20;;;;;;;;;;5054387;28;20214;-82
2023/10/24 01:36:49;;;;;;;4.97;3.70;;;;;;;;;;5054008;28;20256;-82
2023/10/24 01:39:17;;;;;;;4.13;3.73;;;;;;;;;;5054107;28;20237;-82
2023/10/24 01:41:44;;;;;;;9.00;3.83;;;;;;;;;;5053338;28;20238;-82
2023/10/24 01:44:11;;;;;;;5.30;3.33;;;;;;;;;;5054230;28;20216;-82
2023/10/24 01:46:38;;;;;;;5.13;3.60;;;;;;;;;;5053352;28;20602;-82
2023/10/24 01:49:06;;;;;;;5.23;4.30;;;;;;;;;;5053698;28;20226;-82
2023/10/24 01:51:35;;;;;;;4.13;3.60;;;;;;;;;;5053282;28;20641;-82
2023/10/24 01:54:02;;;;;;;6.37;3.83;;;;;;;;;;5053902;28;20276;-82
2023/10/24 01:56:30;;;;;;;4.67;3.97;;;;;;;;;;5053359;28;20265;-82
2023/10/24 01:58:57;;;;;;;5.07;3.40;;;;;;;;;;5053787;28;20237;-82
2023/10/24 02:01:24;;;;;;;5.30;3.87;;;;;;;;;;5052889;28;20287;-82
2023/10/24 02:03:51;;;;;;;3.50;3.10;;;;;;;;;;5053827;28;20202;-82
2023/10/24 02:06:18;;;;;;;7.53;3.10;;;;;;;;;;5053042;28;20619;-82
2023/10/24 02:08:45;;;;;;;3.83;3.00;;;;;;;;;;5053381;28;20708;-82
2023/10/24 02:11:12;;;;;;;3.30;2.93;;;;;;;;;;5052738;28;20229;-82
2023/10/24 02:13:41;;;;;;;5.17;3.30;;;;;;;;;;5053364;28;20221;-82
2023/10/24 02:16:08;;;;;;;4.67;4.00;;;;;;;;;;5053318;28;20233;-82
2023/10/24 02:18:35;;;;;;;4.73;4.10;;;;;;;;;;5053341;28;20212;-82
2023/10/24 02:21:07;;;;;;;9.47;4.30;;;;;;;;;;5053066;28;20233;-82
2023/10/24 02:23:34;;;;;;;4.57;3.43;;;;;;;;;;5053107;28;20202;-82
2023/10/24 02:26:02;;;;;;;4.27;3.97;;;;;;;;;;5053069;28;20303;-82
2023/10/24 02:28:29;;;;;;;5.90;3.53;;;;;;;;;;5052148;28;20213;-82
2023/10/24 02:30:57;;;;;;;4.23;3.67;;;;;;;;;;5052821;28;20232;-82
2023/10/24 02:33:24;;;;;;;4.40;3.37;;;;;;;;;;5053025;28;20245;-82
2023/10/24 02:35:51;;;;;;;4.03;3.70;;;;;;;;;;5048469;28;20253;-82
2023/10/24 02:38:18;;;;;;;5.70;4.27;;;;;;;;;;5052756;28;20598;-82
2023/10/24 02:40:52;;;;;;;4.03;3.47;;;;;;;;;;5052541;28;20234;-82
2023/10/24 02:43:19;;;;;;;5.27;3.90;;;;;;;;;;5052921;28;20213;-82
2023/10/24 02:45:47;;;;;;;6.07;3.40;;;;;;;;;;5052335;28;20594;-82
2023/10/24 02:48:15;;;;;;;4.37;3.77;;;;;;;;;;5052867;28;20202;-82
2023/10/24 02:50:43;;;;;;;4.13;3.67;;;;;;;;;;5052118;28;20237;-83
2023/10/24 02:53:10;;;;;;;6.07;4.00;;;;;;;;;;5052919;28;20237;-82
2023/10/24 02:55:37;;;;;;;5.57;3.70;;;;;;;;;;5052530;28;20703;-83
2023/10/24 02:58:04;;;;;;;4.27;3.53;;;;;;;;;;5052691;28;20209;-82
2023/10/24 03:00:33;;;;;;;6.03;3.57;;;;;;;;;;5051617;28;20260;-83
2023/10/24 03:03:00;;;;;;;5.37;3.67;;;;;;;;;;5052407;28;20202;-82
2023/10/24 03:05:29;;;;;;;6.00;3.50;;;;;;;;;;5052249;28;20230;-82
2023/10/24 03:07:56;;;;;;;6.93;3.77;;;;;;;;;;5052247;28;20575;-82
2023/10/24 03:10:25;;;;;;;4.53;3.83;;;;;;;;;;5051398;28;20233;-82
2023/10/24 03:12:52;;;;;;;6.57;3.37;;;;;;;;;;5051949;28;20225;-82
2023/10/24 03:15:20;;;;;;;4.40;3.70;;;;;;;;;;5051557;28;20201;-82
2023/10/24 03:17:47;;;;;;;3.30;2.97;;;;;;;;;;5052212;28;20198;-82
2023/10/24 03:20:14;;;;;;;3.37;3.03;;;;;;;;;;5051734;28;20230;-82
2023/10/24 03:22:42;;;;;;;4.23;3.13;;;;;;;;;;5054389;28;20194;-82
2023/10/24 03:25:09;;;;;;;3.40;3.17;;;;;;;;;;5051686;28;20248;-82
2023/10/24 03:27:36;;;;;;;3.80;3.23;;;;;;;;;;5052336;28;20206;-82
2023/10/24 03:30:04;;;;;;;3.93;3.40;;;;;;;;;;5051924;28;20221;-82
2023/10/24 03:32:31;;;;;;;4.43;3.00;;;;;;;;;;5051932;28;20206;-82
2023/10/24 03:34:58;;;;;;;8.77;3.57;;;;;;;;;;5051817;28;20205;-82
2023/10/24 03:37:25;;;;;;;7.60;2.93;;;;;;;;;;5051170;28;20240;-82
2023/10/24 03:39:54;;;;;;;5.13;3.27;;;;;;;;;;5047324;28;20252;-82
2023/10/24 03:42:21;;;;;;;4.17;2.87;;;;;;;;;;5051160;28;20225;-82
2023/10/24 03:44:48;;;;;;;5.27;3.57;;;;;;;;;;5052195;28;20209;-82
2023/10/24 03:47:15;;;;;;;3.93;3.50;;;;;;;;;;5051204;28;20253;-82
2023/10/24 03:49:42;;;;;;;4.17;3.63;;;;;;;;;;5051744;28;20226;-82
2023/10/24 03:52:09;;;;;;;4.17;3.10;;;;;;;;;;5050987;28;20754;-82
2023/10/24 03:54:51;;;;;;;4.87;3.33;;;;;;;;;;5018132;28;20210;-82
2023/10/24 03:57:20;;;;;;;4.13;3.73;;;;;;;;;;5051074;28;20238;-82
2023/10/24 03:59:47;;;;;;;4.30;3.40;;;;;;;;;;5050533;28;20225;-83
2023/10/24 04:02:14;;;;;;;9.20;4.30;;;;;;;;;;5050898;28;20241;-82
2023/10/24 04:04:41;;;;;;;5.00;3.10;;;;;;;;;;5051297;28;20572;-82
2023/10/24 04:07:08;;;;;;;3.80;3.40;;;;;;;;;;5051195;28;20237;-82
2023/10/24 04:09:35;;;;;;;4.73;3.40;;;;;;;;;;5051096;28;20230;-82
2023/10/24 04:12:02;;;;;;;6.93;4.17;;;;;;;;;;5050890;28;20609;-82
2023/10/24 04:14:31;;;;;;;9.20;3.90;;;;;;;;;;5051339;28;20576;-83
2023/10/24 04:16:58;;;;;;;3.97;3.67;;;;;;;;;;5050749;28;20230;-83
2023/10/24 04:19:25;;;;;;;4.10;3.70;;;;;;;;;;5051124;28;20233;-82
2023/10/24 04:21:52;;;;;;;4.90;3.70;;;;;;;;;;5050564;28;20242;-83
2023/10/24 04:24:19;;;;;;;4.07;3.63;;;;;;;;;;5051079;28;20575;-83
2023/10/24 04:26:47;;;;;;;5.17;3.90;;;;;;;;;;5050924;28;20732;-83
2023/10/24 04:29:14;;;;;;;4.43;4.03;;;;;;;;;;5050806;28;20230;-83
2023/10/24 04:31:42;;;;;;;4.83;3.80;;;;;;;;;;5049820;28;20241;-83
2023/10/24 04:34:09;;;;;;;3.37;2.93;;;;;;;;;;5051125;28;20237;-84
2023/10/24 04:36:36;;;;;;;5.50;4.00;;;;;;;;;;5050695;28;20249;-83
2023/10/24 04:39:03;;;;;;;8.17;4.10;;;;;;;;;;5050748;28;20696;-83
2023/10/24 04:41:30;;;;;;;8.23;3.67;;;;;;;;;;5050234;28;20233;-82
2023/10/24 04:43:57;;;;;;;3.57;3.23;;;;;;;;;;5046722;28;20220;-82
2023/10/24 04:46:24;;;;;;;4.67;3.67;;;;;;;;;;5049286;28;20237;-82
2023/10/24 04:48:53;;;;;;;3.70;3.40;;;;;;;;;;5050618;28;21104;-82
2023/10/24 04:51:20;;;;;;;3.93;3.50;;;;;;;;;;5050842;28;20228;-82
2023/10/24 04:53:47;;;;;;;5.87;3.97;;;;;;;;;;5055019;28;20226;-82
2023/10/24 04:56:14;;;;;;;4.00;3.70;;;;;;;;;;5054450;28;20741;-83
2023/10/24 04:58:41;;;;;;;3.63;3.30;;;;;;;;;;5054897;28;20234;-82
2023/10/24 05:01:08;;;;;;;4.07;3.67;;;;;;;;;;5054213;28;20346;-83
2023/10/24 05:03:36;;;;;;;6.53;3.10;;;;;;;;;;5054845;28;20198;-83
2023/10/24 05:06:05;;;;;;;4.13;3.57;;;;;;;;;;5054361;28;20229;-83
2023/10/24 05:08:32;;;;;;;4.63;3.20;;;;;;;;;;5054929;28;20343;-82
2023/10/24 05:10:59;;;;;;;5.27;3.70;;;;;;;;;;5054097;28;20666;-82
2023/10/24 05:13:26;;;;;;;4.60;3.93;;;;;;;;;;5054539;28;20241;-84
2023/10/24 05:15:53;;;;;;;3.77;3.43;;;;;;;;;;5054580;28;20250;-83
2023/10/24 05:18:20;;;;;;;6.30;3.97;;;;;;;;;;5054683;28;20210;-84
2023/10/24 05:20:47;;;;;;;4.13;3.73;;;;;;;;;;5054335;28;20230;-84
2023/10/24 05:23:16;;;;;;;3.97;3.57;;;;;;;;;;5054340;28;20267;-84
2023/10/24 05:25:43;;;;;;;5.77;3.70;;;;;;;;;;5054286;28;20238;-85
2023/10/24 05:28:10;;;;;;;4.60;3.90;;;;;;;;;;5054596;28;20247;-85
2023/10/24 05:30:39;;;;;;;5.57;4.13;;;;;;;;;;5054379;28;20235;-85
2023/10/24 05:33:06;;;;;;;6.70;4.10;;;;;;;;;;5054029;28;20198;-84
2023/10/24 05:35:33;;;;;;;4.07;3.63;;;;;;;;;;5053971;28;20249;-84
2023/10/24 05:38:01;;;;;;;4.40;3.67;;;;;;;;;;5054459;28;20247;-84
2023/10/24 05:40:30;;;;;;;6.80;3.70;;;;;;;;;;5053763;28;20238;-84
2023/10/24 05:42:57;;;;;;;5.63;3.90;;;;;;;;;;5054180;28;20332;-84
2023/10/24 05:45:24;;;;;;;5.23;4.10;;;;;;;;;;5053750;28;20585;-84
2023/10/24 05:47:51;;;;;;;7.53;3.57;;;;;;;;;;5054052;28;20676;-84
2023/10/24 05:50:19;;;;;;;5.60;3.60;;;;;;;;;;5053523;28;20226;-83
2023/10/24 05:52:46;;;;;;;7.53;3.73;;;;;;;;;;5053940;28;20742;-84
2023/10/24 05:55:13;;;;;;;8.13;3.70;;;;;;;;;;5053589;28;20264;-84
2023/10/24 05:57:42;;;;;;;5.97;4.13;;;;;;;;;;5053970;28;20688;-84
2023/10/24 06:00:09;;;;;;;4.77;3.93;;;;;;;;;;5053088;28;20231;-84
2023/10/24 06:02:36;;;;;;;4.30;3.90;;;;;;;;;;5053111;28;20202;-84
2023/10/24 06:05:04;;;;;;;5.63;4.23;;;;;;;;;;5052889;28;20202;-84
2023/10/24 06:07:31;;;;;;;6.13;3.97;;;;;;;;;;5054205;28;20676;-83
2023/10/24 06:09:58;;;;;;;4.83;4.43;;;;;;;;;;5053622;28;20235;-84
2023/10/24 06:12:25;;;;;;;4.33;3.93;;;;;;;;;;5053417;28;20256;-84
2023/10/24 06:14:53;;;;;;;4.73;4.17;;;;;;;;;;5053802;28;20245;-83
2023/10/24 06:17:21;;;;;;;11.17;4.60;;;;;;;;;;5053445;28;20242;-83
2023/10/24 06:19:49;;;;;;;4.93;4.07;;;;;;;;;;5053328;28;20230;-83
2023/10/24 06:22:16;;;;;;;4.33;3.90;;;;;;;;;;5053163;28;20257;-84
2023/10/24 06:24:43;;;;;;;4.37;3.97;;;;;;;;;;5053808;28;20215;-83
2023/10/24 06:27:12;;;;;;;5.00;4.20;;;;;;;;;;5053130;28;20245;-84
2023/10/24 06:29:39;;;;;;;6.07;4.77;;;;;;;;;;5053376;28;20230;-83
2023/10/24 06:32:08;;;;;;;10.03;5.43;;;;;;;;;;5053016;28;20608;-83
2023/10/24 06:34:35;;;;;;;5.87;5.27;;;;;;;;;;5053102;28;20225;-84
2023/10/24 06:37:03;;;;;;;8.03;5.63;;;;;;;;;;5047613;28;20312;-83
2023/10/24 06:39:30;;;;;;;5.87;5.07;;;;;;;;;;5058329;28;20249;-83
2023/10/24 06:41:57;;;;;;;7.27;6.53;;;;;;;;;;5072095;28;20241;-83
2023/10/24 06:44:25;;;;;;;7.67;6.43;;;;;;;;;;5060907;28;20213;-83
2023/10/24 06:46:52;;;;;;;7.10;6.43;;;;;;;;;;5072145;28;20236;-84
2023/10/24 06:49:21;;;;;;;11.23;6.70;;;;;;;;;;5056815;28;20230;-83
2023/10/24 06:51:50;;;;;;;7.00;6.40;;;;;;;;;;5064920;28;20225;-83
2023/10/24 06:54:17;;;;;;;6.83;6.13;;;;;;;;;;5073379;28;20233;-83
2023/10/24 06:56:44;;;;;;;7.33;6.50;;;;;;;;;;5060133;28;20308;-83
2023/10/24 06:59:11;;;;;;;5.83;5.23;;;;;;;;;;5052759;28;20225;-83
2023/10/24 07:01:38;;;;;;;7.97;4.80;;;;;;;;;;5071584;28;20225;-83
2023/10/24 07:04:06;;;;;;;7.07;5.87;;;;;;;;;;5064464;28;20212;-83
2023/10/24 07:06:34;;;;;;;7.13;5.17;;;;;;;;;;5061083;28;20233;-83
2023/10/24 07:09:01;;;;;;;5.70;5.13;;;;;;;;;;5052207;28;20218;-83
2023/10/24 07:11:28;;;;;;;7.63;4.80;;;;;;;;;;5069894;28;20233;-83
2023/10/24 07:13:55;;;;;;;5.07;4.20;;;;;;;;;;5071628;28;20244;-83
2023/10/24 07:16:22;;;;;;;4.73;4.23;;;;;;;;;;5071517;28;20317;-83
2023/10/24 07:18:49;;;;;;;5.23;4.47;;;;;;;;;;5070836;28;20231;-83
2023/10/24 07:21:17;;;;;;;6.00;4.90;;;;;;;;;;5051441;28;20256;-84
2023/10/24 07:23:45;;;;;;;4.60;4.20;;;;;;;;;;5044873;28;20251;-84
2023/10/24 07:26:12;;;;;;;6.13;4.80;;;;;;;;;;5053381;28;20230;-83
2023/10/24 07:28:39;;;;;;;5.87;5.10;;;;;;;;;;5058211;28;20229;-83
2023/10/24 07:31:06;;;;;;;7.37;5.00;;;;;;;;;;5063914;28;20233;-82
2023/10/24 07:33:33;;;;;;;5.87;4.80;;;;;;;;;;5069448;28;20226;-83
2023/10/24 07:36:06;;;;;;;5.30;4.43;;;;;;;;;;5063884;28;20233;-83
2023/10/24 07:38:33;;;;;;;4.77;4.20;;;;;;;;;;5065961;28;20217;-84
2023/10/24 07:41:02;;;;;;;4.97;4.47;;;;;;;;;;5066701;28;20226;-83
2023/10/24 07:43:30;;;;;;;9.43;5.03;;;;;;;;;;5060071;28;20699;-83
2023/10/24 07:45:57;;;;;;;6.60;5.00;;;;;;;;;;5056724;28;20735;-84
2023/10/24 07:48:24;;;;;;;11.07;5.83;;;;;;;;;;5054070;28;20206;-84
2023/10/24 07:50:52;;;;;;;7.13;5.00;;;;;;;;;;5051079;28;20226;-84
2023/10/24 07:53:19;;;;;;;7.67;5.60;;;;;;;;;;5050792;28;20221;-83
2023/10/24 07:55:46;;;;;;;5.47;4.87;;;;;;;;;;5050359;28;20230;-83
2023/10/24 07:58:16;;;;;;;8.67;4.67;;;;;;;;;;5051326;28;20202;-83
2023/10/24 08:00:43;;;;;;;9.93;4.50;;;;;;;;;;5057994;28;20233;-83
2023/10/24 08:03:10;;;;;;;8.70;4.70;;;;;;;;;;5050831;28;20711;-83
2023/10/24 08:05:38;;;;;;;5.90;5.30;;;;;;;;;;5043644;28;20226;-83
2023/10/24 08:08:06;;;;;;;6.03;4.63;;;;;;;;;;5061066;28;20205;-84
2023/10/24 08:10:33;;;;;;;5.40;4.63;;;;;;;;;;5069811;28;20237;-83
2023/10/24 08:13:00;;;;;;;6.37;5.30;;;;;;;;;;5063147;28;20748;-83
2023/10/24 08:15:29;;;;;;;7.63;5.03;;;;;;;;;;5050674;28;20234;-84
2023/10/24 08:17:56;;;;;;;8.03;4.60;;;;;;;;;;5058831;28;20206;-84
2023/10/24 08:20:23;;;;;;;5.73;3.87;;;;;;;;;;5044005;28;20245;-84
2023/10/24 08:22:51;;;;;;;8.40;4.30;;;;;;;;;;5058750;28;20206;-84
2023/10/24 08:25:18;;;;;;;5.77;3.87;;;;;;;;;;5057040;28;20209;-84
2023/10/24 08:27:45;;;;;;;6.83;3.77;;;;;;;;;;5041944;28;20202;-84
2023/10/24 08:30:13;;;;;;;4.03;3.63;;;;;;;;;;5049621;28;20222;-83
2023/10/24 08:32:41;;;;;;;6.03;4.03;;;;;;;;;;5058084;28;20202;-83
2023/10/24 08:35:09;;;;;;;4.43;3.87;;;;;;;;;;5056551;28;20227;-83
2023/10/24 08:37:36;;;;;;;4.60;3.70;;;;;;;;;;5053460;28;20213;-83
2023/10/24 08:40:03;;;;;;;4.63;3.80;;;;;;;;;;5063507;28;20226;-83
2023/10/24 08:42:31;;;;;;;7.10;3.67;;;;;;;;;;5058187;28;20206;-84
2023/10/24 08:44:59;;;;;;;5.30;3.93;;;;;;;;;;5063644;28;20263;-83
2023/10/24 08:47:26;;;;;;;5.13;4.23;;;;;;;;;;5059534;28;20282;-83
2023/10/24 08:49:55;;;;;;;9.23;4.97;;;;;;;;;;5058407;28;20276;-83
2023/10/24 08:52:22;;;;;;;5.57;4.87;;;;;;;;;;5050015;28;20240;-84
2023/10/24 08:54:51;;;;;;;6.23;4.87;;;;;;;;;;5054045;28;20714;-82
2023/10/24 08:57:20;;;;;;;5.77;4.47;;;;;;;;;;5060888;28;20244;-83
2023/10/24 08:59:48;;;;;;;6.63;4.70;;;;;;;;;;5044346;28;20232;-83
2023/10/24 09:02:15;;;;;;;6.13;4.87;;;;;;;;;;5049670;28;20237;-83
2023/10/24 09:04:42;;;;;;;6.10;5.33;;;;;;;;;;5049376;28;20200;-83
2023/10/24 09:07:10;;;;;;;6.57;5.70;;;;;;;;;;5056229;28;20252;-82
2023/10/24 09:09:37;;;;;;;5.90;5.30;;;;;;;;;;5061855;28;20226;-83
2023/10/24 09:12:05;;;;;;;8.13;5.13;;;;;;;;;;5066164;28;20726;-83
2023/10/24 09:14:32;;;;;;;7.03;5.57;;;;;;;;;;5069979;28;20225;-83
2023/10/24 09:17:00;;;;;;;7.20;5.03;;;;;;;;;;5069532;28;20220;-85
2023/10/24 09:19:27;;;;;;;7.17;5.73;;;;;;;;;;5058884;28;20260;-82
2023/10/24 09:21:56;;;;;;;6.00;5.03;;;;;;;;;;5045967;28;20234;-82
2023/10/24 09:24:24;;;;;;;5.70;4.50;;;;;;;;;;5043892;28;20216;-82
2023/10/24 09:26:52;;;;;;;5.50;4.83;;;;;;;;;;5046051;28;20313;-83
2023/10/24 09:29:20;;;;;;;5.90;4.90;;;;;;;;;;5042510;28;20230;-83
2023/10/24 09:31:47;;;;;;;6.77;4.20;;;;;;;;;;5057307;28;20296;-83
2023/10/24 09:34:14;;;;;;;8.83;4.50;;;;;;;;;;5049924;28;20202;-83
2023/10/24 09:36:41;;;;;;;6.57;4.83;;;;;;;;;;5065471;28;20229;-82
2023/10/24 09:39:11;;;;;;;6.50;4.30;;;;;;;;;;5060964;28;20234;-82
2023/10/24 09:41:40;;;;;;;5.27;4.23;;;;;;;;;;5053904;28;20691;-82
2023/10/24 09:44:08;;;;;;;6.37;4.53;;;;;;;;;;5073307;28;20564;-83
2023/10/24 09:46:35;;;;;;;6.37;3.77;;;;;;;;;;5070886;28;20283;-84
2023/10/24 09:49:02;;;;;;;4.27;3.87;;;;;;;;;;5053283;28;20309;-83
2023/10/24 09:51:31;;;;;;;4.07;3.67;;;;;;;;;;5060305;28;20237;-82
2023/10/24 09:53:58;;;;;;;6.07;4.23;;;;;;;;;;5065536;28;20209;-83
2023/10/24 09:56:26;;;;;;;6.90;4.23;;;;;;;;;;5072165;28;20233;-83
2023/10/24 09:58:55;;;;;;;5.33;3.83;;;;;;;;;;5044931;28;20240;-83
2023/10/24 10:01:22;;;;;;;5.47;4.10;;;;;;;;;;5051976;28;20229;-84
2023/10/24 10:03:50;;;;;;;7.87;4.10;;;;;;;;;;5063529;28;20205;-84
2023/10/24 10:06:18;;;;;;;4.17;3.60;;;;;;;;;;5072353;28;20249;-83
2023/10/24 10:08:46;;;;;;;4.47;4.07;;;;;;;;;;5072807;28;20712;-83
2023/10/24 10:11:13;;;;;;;4.57;4.13;;;;;;;;;;5071810;28;20228;-83
2023/10/24 10:13:44;;;;;;;7.67;4.47;;;;;;;;;;5053910;28;20673;-83
2023/10/24 10:16:24;;;;;;;5.70;3.80;;;;;;;;;;5058362;28;20684;-84
2023/10/24 10:19:05;;;;;;;5.83;4.50;;;;;;;;;;5065032;28;20266;-83
2023/10/24 10:21:37;;;;;;;6.13;4.37;;;;;;;;;;5063459;28;20574;-82
2023/10/24 10:24:11;;;;;;;7.30;3.93;;;;;;;;;;5064291;28;20205;-84
2023/10/24 10:26:57;;;;;;;4.73;3.70;;;;;;;;;;5063413;28;20735;-84
2023/10/24 10:29:30;;;;;;;4.67;3.70;;;;;;;;;;5064443;28;20360;-84
2023/10/24 10:32:08;;;;;;;4.80;4.30;;;;;;;;;;5052177;28;20232;-85
2023/10/24 10:34:37;;;;;;;3.63;3.33;;;;;;;;;;5069716;28;20209;-83
2023/10/24 10:37:04;;;;;;;4.83;3.20;;;;;;;;;;5063472;28;20714;-83
2023/10/24 10:39:31;;;;;;;2.70;2.50;;;;;;;;;;5062807;28;20234;-83
2023/10/24 10:41:58;;;;;;;3.00;2.70;;;;;;;;;;5051837;28;20233;-83
2023/10/24 10:44:35;;;;;;;3.03;2.83;;;;;;;;;;5051936;28;20589;-84
2023/10/24 10:47:04;;;;;;;2.60;2.40;;;;;;;;;;5056481;28;20221;-83
2023/10/24 10:49:38;;;;;;;2.47;2.27;;;;;;;;;;5054081;28;20244;-83
2023/10/24 10:52:10;;;;;;;2.83;2.57;;;;;;;;;;5051388;28;20225;-84
2023/10/24 10:54:42;;;;;;;5.43;3.63;;;;;;;;;;5052073;28;20212;-84
2023/10/24 10:57:10;;;;;;;6.37;4.40;;;;;;;;;;5065369;28;20229;-83
2023/10/24 10:59:44;;;;;;;3.03;2.83;;;;;;;;;;5071837;28;20221;-83
2023/10/24 11:02:17;;;;;;;3.23;2.73;;;;;;;;;;5070467;28;20230;-83
2023/10/24 11:04:44;;;;;;;2.83;2.60;;;;;;;;;;5061623;28;20259;-83
2023/10/24 11:07:11;;;;;;;3.60;2.77;;;;;;;;;;5051514;28;20618;-83
2023/10/24 11:09:40;;;;;;;2.37;2.17;;;;;;;;;;5069415;28;20609;-83
2023/10/24 11:12:27;;;;;;;3.40;2.30;;;;;;;;;;5070788;28;20309;-83
2023/10/24 11:15:13;;;;;;;3.43;2.73;;;;;;;;;;5059545;28;20582;-83
2023/10/24 11:17:42;;;;;;;2.53;2.20;;;;;;;;;;5050942;28;20761;-83
2023/10/24 11:20:10;;;;;;;2.23;2.03;;;;;;;;;;5055921;28;20257;-83
2023/10/24 11:22:37;;;;;;;3.97;1.70;;;;;;;;;;5054695;28;20217;-83
2023/10/24 11:25:09;;;;;;;3.40;2.13;;;;;;;;;;5057805;28;20198;-83
2023/10/24 11:27:36;;;;;;;3.03;2.53;;;;;;;;;;5051303;28;20624;-83
2023/10/24 11:30:03;;;;;;;4.53;2.80;;;;;;;;;;5054773;28;20225;-83
2023/10/24 11:32:31;;;;;;;3.97;2.40;;;;;;;;;;5062664;28;20206;-83
2023/10/24 11:34:59;;;;;;;6.30;3.80;;;;;;;;;;5055051;28;20212;-83
2023/10/24 11:37:26;;;;;;;3.73;2.50;;;;;;;;;;5070480;28;20232;-83
2023/10/24 11:39:53;;;;;;;5.00;3.30;;;;;;;;;;5070848;28;20225;-83
2023/10/24 11:42:20;;;;;;;4.77;3.30;;;;;;;;;;5070090;28;20233;-83
2023/10/24 11:44:47;;;;;;;5.53;3.20;;;;;;;;;;5071119;28;20231;-83
2023/10/24 11:47:15;;;;;;;4.87;3.73;;;;;;;;;;5064657;28;20700;-83
2023/10/24 11:49:43;;;;;;;9.07;4.03;;;;;;;;;;5050551;28;20249;-83
2023/10/24 11:52:11;;;;;;;4.00;2.90;;;;;;;;;;5049934;28;20237;-83
2023/10/24 11:54:38;;;;;;;5.10;2.47;;;;;;;;;;5051116;28;20222;-83
2023/10/24 11:57:07;;;;;;;4.17;3.27;;;;;;;;;;5062911;28;20239;-83
2023/10/24 11:59:35;;;;;;;7.80;5.23;;;;;;;;;;5070583;28;20708;-83
2023/10/24 12:02:03;;;;;;;5.50;3.33;;;;;;;;;;5065413;28;20230;-83
2023/10/24 12:04:31;;;;;;;5.30;3.50;;;;;;;;;;5067095;28;20639;-83
2023/10/24 12:07:05;;;;;;;4.53;2.80;;;;;;;;;;5070053;28;20221;-83
2023/10/24 12:09:34;;;;;;;3.93;3.03;;;;;;;;;;5062318;28;20229;-83
2023/10/24 12:12:02;;;;;;;5.13;3.60;;;;;;;;;;5041683;28;20237;-83
2023/10/24 12:14:29;;;;;;;2.97;1.70;;;;;;;;;;5050991;28;20202;-83
2023/10/24 12:16:56;;;;;;;2.73;2.17;;;;;;;;;;5049297;28;20234;-83
2023/10/24 12:19:23;;;;;;;3.23;2.40;;;;;;;;;;5050582;28;20217;-83
2023/10/24 12:21:50;;;;;;;14.30;7.77;;;;;;;;;;5049141;28;20252;-83
2023/10/24 12:24:17;;;;;;;11.27;6.33;;;;;;;;;;5050228;28;20668;-84
2023/10/24 12:26:45;;;;;;;3.40;2.80;;;;;;;;;;5059804;28;20225;-85
2023/10/24 12:29:12;;;;;;;2.70;2.07;;;;;;;;;;5069826;28;20229;-84
2023/10/24 12:31:40;;;;;;;2.23;1.80;;;;;;;;;;5060414;28;20229;-84
2023/10/24 12:34:08;;;;;;;1.97;1.40;;;;;;;;;;5063104;28;20718;-84
2023/10/24 12:36:35;;;;;;;2.13;1.53;;;;;;;;;;5069844;28;20229;-84
2023/10/24 12:39:02;;;;;;;3.60;1.50;;;;;;;;;;5066178;28;20230;-84
2023/10/24 12:41:30;;;;;;;1.53;1.43;;;;;;;;;;5049297;28;20615;-84
2023/10/24 12:43:59;;;;;;;1.40;1.30;;;;;;;;;;5067409;28;20288;-83
2023/10/24 12:46:26;;;;;;;1.87;1.77;;;;;;;;;;5050920;28;20218;-83
2023/10/24 12:48:53;;;;;;;1.90;1.77;;;;;;;;;;5048394;28;20233;-84
2023/10/24 12:51:20;;;;;;;1.97;1.70;;;;;;;;;;5054448;28;20922;-84
2023/10/24 12:53:47;;;;;;;1.73;1.63;;;;;;;;;;5066180;28;20216;-84
2023/10/24 12:56:15;;;;;;;2.67;1.80;;;;;;;;;;5049125;28;20226;-84
2023/10/24 12:58:43;;;;;;;2.00;1.80;;;;;;;;;;5056787;28;20316;-84
2023/10/24 13:01:11;;;;;;;1.90;1.60;;;;;;;;;;5062094;28;20228;-84
2023/10/24 13:03:38;;;;;;;1.70;1.60;;;;;;;;;;5062447;28;20202;-84
2023/10/24 13:06:05;;;;;;;2.57;1.83;;;;;;;;;;5041528;28;20272;-85
2023/10/24 13:08:32;;;;;;;2.53;1.87;;;;;;;;;;5051168;28;20206;-83
2023/10/24 13:10:59;;;;;;;2.10;2.00;;;;;;;;;;5048698;28;20241;-84
2023/10/24 13:13:26;;;;;;;1.93;1.83;;;;;;;;;;5052213;28;20548;-84
2023/10/24 13:15:53;;;;;;;2.23;2.03;;;;;;;;;;5049428;28;20233;-83
2023/10/24 13:18:22;;;;;;;3.73;2.40;;;;;;;;;;5053488;28;20202;-84
2023/10/24 13:20:49;;;;;;;2.00;1.80;;;;;;;;;;5059592;28;20244;-84
2023/10/24 13:23:16;;;;;;;2.00;1.83;;;;;;;;;;5053505;28;20211;-84
2023/10/24 13:25:43;;;;;;;1.90;1.63;;;;;;;;;;5052942;28;20229;-83
2023/10/24 13:28:10;;;;;;;3.20;1.80;;;;;;;;;;5053303;28;20209;-84
2023/10/24 13:30:37;;;;;;;2.23;2.03;;;;;;;;;;5053017;28;20244;-84
2023/10/24 13:33:04;;;;;;;1.80;1.70;;;;;;;;;;5058882;28;20201;-84
2023/10/24 13:35:33;;;;;;;2.07;1.87;;;;;;;;;;5070302;28;20578;-83
2023/10/24 13:38:00;;;;;;;1.90;1.70;;;;;;;;;;5064422;28;20228;-84
2023/10/24 13:40:27;;;;;;;1.70;1.60;;;;;;;;;;5055976;28;20708;-84
2023/10/24 13:42:54;;;;;;;1.80;1.70;;;;;;;;;;5055267;28;20692;-84
2023/10/24 13:45:21;;;;;;;3.27;2.10;;;;;;;;;;5073046;28;20205;-84
2023/10/24 13:47:48;;;;;;;2.53;2.10;;;;;;;;;;5063010;28;20201;-83
2023/10/24 13:50:15;;;;;;;4.90;2.50;;;;;;;;;;5058102;28;20268;-84
2023/10/24 13:52:43;;;;;;;2.13;1.90;;;;;;;;;;5055871;28;20688;-83
2023/10/24 13:55:10;;;;;;;2.40;2.27;;;;;;;;;;5061233;28;20206;-84
2023/10/24 13:57:37;;;;;;;2.20;2.00;;;;;;;;;;5059060;28;20229;-84
2023/10/24 14:00:06;;;;;;;2.07;1.90;;;;;;;;;;5050370;28;20233;-83
2023/10/24 14:02:33;;;;;;;2.63;1.83;;;;;;;;;;5051785;28;20577;-81
2023/10/24 14:05:00;;;;;;;2.17;1.97;;;;;;;;;;5054569;28;20213;-81
2023/10/24 14:07:27;;;;;;;2.20;2.00;;;;;;;;;;5052751;28;20229;-82
2023/10/24 14:09:55;;;;;;;2.57;2.37;;;;;;;;;;5062412;28;20226;-84
2023/10/24 14:12:22;;;;;;;3.37;2.40;;;;;;;;;;5051708;28;20233;-83
2023/10/24 14:14:49;;;;;;;3.23;2.77;;;;;;;;;;5060839;28;20206;-82
2023/10/24 14:17:17;;;;;;;3.50;2.77;;;;;;;;;;5051792;28;20240;-82
2023/10/24 14:19:48;;;;;;;2.43;2.23;;;;;;;;;;5052104;28;20245;-82
2023/10/24 14:22:15;;;;;;;2.53;2.40;;;;;;;;;;5051488;28;20652;-82
2023/10/24 14:24:42;;;;;;;2.60;2.40;;;;;;;;;;5050946;28;20206;-82
2023/10/24 14:27:11;;;;;;;4.07;2.67;;;;;;;;;;5056116;28;20299;-82
2023/10/24 14:29:38;;;;;;;2.47;2.37;;;;;;;;;;5062578;28;20229;-82
2023/10/24 14:32:05;;;;;;;2.60;2.33;;;;;;;;;;5059981;28;20230;-82
2023/10/24 14:34:32;;;;;;;2.90;2.70;;;;;;;;;;5059899;28;20209;-82
2023/10/24 14:36:59;;;;;;;2.63;2.43;;;;;;;;;;5054510;28;20233;-82
2023/10/24 14:39:26;;;;;;;2.30;2.20;;;;;;;;;;5052038;28;20711;-82
2023/10/24 14:41:55;;;;;;;2.53;2.33;;;;;;;;;;5051020;28;20230;-82
2023/10/24 14:44:24;;;;;;;3.07;2.87;;;;;;;;;;5052249;28;20633;-82
2023/10/24 14:46:51;;;;;;;2.93;2.70;;;;;;;;;;5051474;28;20230;-82